Terminal Aerodrome Forecast
Issued by NWS Upton, NY

Current Version | Previous Version | Text Only | Print | Product List | Glossary On
Versions: 1 2 3 4 5 6 7 8 9 10 11 12 13 14 15 16 17 18 19 20 21 22 23 24 25 26 27 28 29 30
000
FTUS41 KOKX 010500
TAFLGA
TAF
KLGA 010524Z 0106/0206 23007KT 6SM BR VCSH SCT020 BKN040
     FM010800 26006KT 6SM BR SCT015 BKN030
      TEMPO 0109/0112 5SM BR BKN015
     FM011600 20006KT P6SM SCT025 BKN040 PROB30 0118/0122 5SM SHRA
      BKN025
     FM020100 23007KT P6SM SCT025 SCT040=

USA.gov is the U.S. government's official web portal to all federal, state and local government web resources and services.